Terminal Aerodrome Forecast
Issued by NWS Portland, OR

Current Version | Previous Version | Text Only | Print | Product List | Glossary On
Versions: 1 2 3 4 5 6 7 8 9 10 11 12 13 14 15 16 17 18 19 20 21 22 23 24 25 26 27 28 29 30 31 32
000
FTUS46 KPQR 272332
TAFAST
TAF
KAST 272332Z 2800/2824 20008KT P6SM SCT050 OVC120
     FM280800 17003KT P6SM -RA SCT015 BKN025 OVC040
     FM281300 20004KT P6SM -RA BKN008 OVC015
     FM281700 21008KT P6SM -RA SCT008 BKN015 OVC025=

USA.gov is the U.S. government's official web portal to all federal, state and local government web resources and services.